<?xml version="1.0" encoding="utf-8"?>
<gpx xmlns:xsi="http://www.w3.org/2001/XMLSchema-instance" xmlns:xsd="http://www.w3.org/2001/XMLSchema" version="1.1" creator="Shapelink.com" xmlns="http://www.topografix.com/GPX/1/1" xmlns:gpxtpx="http://www.garmin.com/xmlschemas/TrackPointExtension/v1">
  <metadata>
    <name>Cykling 12.66 km, 2019-08-19</name>
    <desc></desc>
    <author><name>Henrik Staffas</name></author> 
    <time>2019-08-19T16:39:09Z</time>
  </metadata>
  <trk>
    <name>Cykling 12.66 km, 2019-08-19</name>
    <trkseg>
      <trkpt lat="59.333580316826" lon="18.018094170442">
        <ele>71</ele>
        <time>2019-08-19T16:39:09Z</time>
      </trkpt>
      <trkpt lat="59.333293823484" lon="18.017677673831">
        <ele>72</ele>
        <time>2019-08-19T16:39:19Z</time>
      </trkpt>
      <trkpt lat="59.333186786621" lon="18.017457565137">
        <ele>71.8</ele>
        <time>2019-08-19T16:39:23Z</time>
      </trkpt>
      <trkpt lat="59.333582077025" lon="18.01670210449">
        <ele>71.4</ele>
        <time>2019-08-19T16:39:36Z</time>
      </trkpt>
      <trkpt lat="59.333849711092" lon="18.016022164762">
        <ele>71.4</ele>
        <time>2019-08-19T16:39:46Z</time>
      </trkpt>
      <trkpt lat="59.3340703227" lon="18.015686721124">
        <ele>71.6</ele>
        <time>2019-08-19T16:39:52Z</time>
      </trkpt>
      <trkpt lat="59.334147603818" lon="18.015589574903">
        <ele>72.4</ele>
        <time>2019-08-19T16:39:54Z</time>
      </trkpt>
      <trkpt lat="59.334298561837" lon="18.015414477012">
        <ele>73.6</ele>
        <time>2019-08-19T16:39:57Z</time>
      </trkpt>
      <trkpt lat="59.334507522604" lon="18.014902007646">
        <ele>73.6</ele>
        <time>2019-08-19T16:40:03Z</time>
      </trkpt>
      <trkpt lat="59.334584887541" lon="18.014767813427">
        <ele>73.2</ele>
        <time>2019-08-19T16:40:05Z</time>
      </trkpt>
      <trkpt lat="59.33466208484" lon="18.014630434086">
        <ele>73.2</ele>
        <time>2019-08-19T16:40:07Z</time>
      </trkpt>
      <trkpt lat="59.335076485976" lon="18.013826526057">
        <ele>73.8</ele>
        <time>2019-08-19T16:40:19Z</time>
      </trkpt>
      <trkpt lat="59.335252338238" lon="18.013581858396">
        <ele>73.6</ele>
        <time>2019-08-19T16:40:25Z</time>
      </trkpt>
      <trkpt lat="59.335400362592" lon="18.013761398694">
        <ele>75.2</ele>
        <time>2019-08-19T16:40:31Z</time>
      </trkpt>
      <trkpt lat="59.335429783061" lon="18.013817222148">
        <ele>75.8</ele>
        <time>2019-08-19T16:40:32Z</time>
      </trkpt>
      <trkpt lat="59.335460125539" lon="18.013877907104">
        <ele>76.2</ele>
        <time>2019-08-19T16:40:33Z</time>
      </trkpt>
      <trkpt lat="59.335539166856" lon="18.014163059342">
        <ele>77.4</ele>
        <time>2019-08-19T16:40:37Z</time>
      </trkpt>
      <trkpt lat="59.335560456882" lon="18.014231790922">
        <ele>77.6</ele>
        <time>2019-08-19T16:40:38Z</time>
      </trkpt>
      <trkpt lat="59.33564109076" lon="18.014392304307">
        <ele>78</ele>
        <time>2019-08-19T16:40:41Z</time>
      </trkpt>
      <trkpt lat="59.335711582539" lon="18.01449347384">
        <ele>78.6</ele>
        <time>2019-08-19T16:40:43Z</time>
      </trkpt>
      <trkpt lat="59.33574418813" lon="18.014561953963">
        <ele>78.8</ele>
        <time>2019-08-19T16:40:44Z</time>
      </trkpt>
      <trkpt lat="59.335800263041" lon="18.014688269196">
        <ele>79.6</ele>
        <time>2019-08-19T16:40:46Z</time>
      </trkpt>
      <trkpt lat="59.336027580169" lon="18.015036285684">
        <ele>80.8</ele>
        <time>2019-08-19T16:40:52Z</time>
      </trkpt>
      <trkpt lat="59.336112488816" lon="18.015171066636">
        <ele>81.2</ele>
        <time>2019-08-19T16:40:54Z</time>
      </trkpt>
      <trkpt lat="59.336232098529" lon="18.015363766517">
        <ele>82</ele>
        <time>2019-08-19T16:40:57Z</time>
      </trkpt>
      <trkpt lat="59.336327233094" lon="18.015552191629">
        <ele>83.2</ele>
        <time>2019-08-19T16:41:00Z</time>
      </trkpt>
      <trkpt lat="59.336405687678" lon="18.015726702787">
        <ele>84.4</ele>
        <time>2019-08-19T16:41:03Z</time>
      </trkpt>
      <trkpt lat="59.3365010737" lon="18.015952175897">
        <ele>85.6</ele>
        <time>2019-08-19T16:41:07Z</time>
      </trkpt>
      <trkpt lat="59.336575924067" lon="18.016114617119">
        <ele>86.8</ele>
        <time>2019-08-19T16:41:10Z</time>
      </trkpt>
      <trkpt lat="59.336681955102" lon="18.01631486071">
        <ele>87.8</ele>
        <time>2019-08-19T16:41:14Z</time>
      </trkpt>
      <trkpt lat="59.336824112126" lon="18.016612669617">
        <ele>88.8</ele>
        <time>2019-08-19T16:41:21Z</time>
      </trkpt>
      <trkpt lat="59.336937854509" lon="18.016794808304">
        <ele>89</ele>
        <time>2019-08-19T16:41:28Z</time>
      </trkpt>
      <trkpt lat="59.337029803952" lon="18.016766142206">
        <ele>89.2</ele>
        <time>2019-08-19T16:41:31Z</time>
      </trkpt>
      <trkpt lat="59.337109348183" lon="18.016680227731">
        <ele>89.2</ele>
        <time>2019-08-19T16:41:33Z</time>
      </trkpt>
      <trkpt lat="59.337530454839" lon="18.01586810544">
        <ele>89</ele>
        <time>2019-08-19T16:41:44Z</time>
      </trkpt>
      <trkpt lat="59.337756179406" lon="18.015433001011">
        <ele>90</ele>
        <time>2019-08-19T16:41:50Z</time>
      </trkpt>
      <trkpt lat="59.337995147375" lon="18.014804777606">
        <ele>89</ele>
        <time>2019-08-19T16:41:56Z</time>
      </trkpt>
      <trkpt lat="59.338039236169" lon="18.014687431006">
        <ele>88.8</ele>
        <time>2019-08-19T16:41:57Z</time>
      </trkpt>
      <trkpt lat="59.338178627166" lon="18.014342432002">
        <ele>87.6</ele>
        <time>2019-08-19T16:42:00Z</time>
      </trkpt>
      <trkpt lat="59.338279461423" lon="18.014091897011">
        <ele>86</ele>
        <time>2019-08-19T16:42:02Z</time>
      </trkpt>
      <trkpt lat="59.338382474974" lon="18.013894084171">
        <ele>84.6</ele>
        <time>2019-08-19T16:42:04Z</time>
      </trkpt>
      <trkpt lat="59.338471993666" lon="18.013733486967">
        <ele>84</ele>
        <time>2019-08-19T16:42:06Z</time>
      </trkpt>
      <trkpt lat="59.338519770496" lon="18.013677747332">
        <ele>83.4</ele>
        <time>2019-08-19T16:42:07Z</time>
      </trkpt>
      <trkpt lat="59.338577102692" lon="18.013678166427">
        <ele>82.6</ele>
        <time>2019-08-19T16:42:08Z</time>
      </trkpt>
      <trkpt lat="59.338624879522" lon="18.013730301845">
        <ele>81.8</ele>
        <time>2019-08-19T16:42:09Z</time>
      </trkpt>
      <trkpt lat="59.338665531737" lon="18.013805236031">
        <ele>81.2</ele>
        <time>2019-08-19T16:42:10Z</time>
      </trkpt>
      <trkpt lat="59.338787153106" lon="18.014081000541">
        <ele>80.6</ele>
        <time>2019-08-19T16:42:13Z</time>
      </trkpt>
      <trkpt lat="59.338876336522" lon="18.014257523355">
        <ele>80.2</ele>
        <time>2019-08-19T16:42:15Z</time>
      </trkpt>
      <trkpt lat="59.3390072618" lon="18.014599756332">
        <ele>79.4</ele>
        <time>2019-08-19T16:42:18Z</time>
      </trkpt>
      <trkpt lat="59.339046069997" lon="18.014715510371">
        <ele>79</ele>
        <time>2019-08-19T16:42:19Z</time>
      </trkpt>
      <trkpt lat="59.339158555095" lon="18.015020192436">
        <ele>78.2</ele>
        <time>2019-08-19T16:42:22Z</time>
      </trkpt>
      <trkpt lat="59.339188227021" lon="18.015117506295">
        <ele>77.8</ele>
        <time>2019-08-19T16:42:23Z</time>
      </trkpt>
      <trkpt lat="59.339209517047" lon="18.015211467394">
        <ele>77.2</ele>
        <time>2019-08-19T16:42:24Z</time>
      </trkpt>
      <trkpt lat="59.339225275019" lon="18.015297549507">
        <ele>76.4</ele>
        <time>2019-08-19T16:42:25Z</time>
      </trkpt>
      <trkpt lat="59.339234159833" lon="18.015368628019">
        <ele>76</ele>
        <time>2019-08-19T16:42:26Z</time>
      </trkpt>
      <trkpt lat="59.339272884211" lon="18.01552947668">
        <ele>74.4</ele>
        <time>2019-08-19T16:42:29Z</time>
      </trkpt>
      <trkpt lat="59.339302723775" lon="18.015556717855">
        <ele>74</ele>
        <time>2019-08-19T16:42:30Z</time>
      </trkpt>
      <trkpt lat="59.339349578596" lon="18.015548587412">
        <ele>73.2</ele>
        <time>2019-08-19T16:42:31Z</time>
      </trkpt>
      <trkpt lat="59.339408838629" lon="18.015465103688">
        <ele>72.8</ele>
        <time>2019-08-19T16:42:32Z</time>
      </trkpt>
      <trkpt lat="59.339520485537" lon="18.015263016079">
        <ele>72</ele>
        <time>2019-08-19T16:42:34Z</time>
      </trkpt>
      <trkpt lat="59.339911417353" lon="18.014449971779">
        <ele>71.4</ele>
        <time>2019-08-19T16:42:41Z</time>
      </trkpt>
      <trkpt lat="59.339959194183" lon="18.014314771732">
        <ele>71</ele>
        <time>2019-08-19T16:42:42Z</time>
      </trkpt>
      <trkpt lat="59.340066231046" lon="18.013914619826">
        <ele>70.6</ele>
        <time>2019-08-19T16:42:45Z</time>
      </trkpt>
      <trkpt lat="59.34024191567" lon="18.012903511229">
        <ele>72.2</ele>
        <time>2019-08-19T16:42:54Z</time>
      </trkpt>
      <trkpt lat="59.340325567032" lon="18.01281122651">
        <ele>72.6</ele>
        <time>2019-08-19T16:42:56Z</time>
      </trkpt>
      <trkpt lat="59.340425982194" lon="18.012802676972">
        <ele>72.8</ele>
        <time>2019-08-19T16:42:58Z</time>
      </trkpt>
      <trkpt lat="59.340912383851" lon="18.013016834517">
        <ele>71</ele>
        <time>2019-08-19T16:43:08Z</time>
      </trkpt>
      <trkpt lat="59.340939122112" lon="18.013008033522">
        <ele>70.8</ele>
        <time>2019-08-19T16:43:09Z</time>
      </trkpt>
      <trkpt lat="59.341068203372" lon="18.012764790784">
        <ele>70.8</ele>
        <time>2019-08-19T16:43:14Z</time>
      </trkpt>
      <trkpt lat="59.34110944232" lon="18.012593716205">
        <ele>71.2</ele>
        <time>2019-08-19T16:43:16Z</time>
      </trkpt>
      <trkpt lat="59.341235254639" lon="18.011810679107">
        <ele>71.4</ele>
        <time>2019-08-19T16:43:24Z</time>
      </trkpt>
      <trkpt lat="59.341470115477" lon="18.010947762502">
        <ele>71</ele>
        <time>2019-08-19T16:43:31Z</time>
      </trkpt>
      <trkpt lat="59.341689553619" lon="18.010515507919">
        <ele>69.6</ele>
        <time>2019-08-19T16:43:36Z</time>
      </trkpt>
      <trkpt lat="59.341907650657" lon="18.010265894937">
        <ele>68.6</ele>
        <time>2019-08-19T16:43:42Z</time>
      </trkpt>
      <trkpt lat="59.341969006165" lon="18.010211664044">
        <ele>68.4</ele>
        <time>2019-08-19T16:43:43Z</time>
      </trkpt>
      <trkpt lat="59.342202274442" lon="18.009798268736">
        <ele>68</ele>
        <time>2019-08-19T16:43:48Z</time>
      </trkpt>
      <trkpt lat="59.342293218057" lon="18.009720652342">
        <ele>68</ele>
        <time>2019-08-19T16:43:50Z</time>
      </trkpt>
      <trkpt lat="59.34248323573" lon="18.009596013489">
        <ele>68.4</ele>
        <time>2019-08-19T16:43:53Z</time>
      </trkpt>
      <trkpt lat="59.342818092635" lon="18.009560893328">
        <ele>69.4</ele>
        <time>2019-08-19T16:43:57Z</time>
      </trkpt>
      <trkpt lat="59.343049768351" lon="18.009534238886">
        <ele>69.2</ele>
        <time>2019-08-19T16:44:00Z</time>
      </trkpt>
      <trkpt lat="59.343255376358" lon="18.009387304179">
        <ele>69</ele>
        <time>2019-08-19T16:44:03Z</time>
      </trkpt>
      <trkpt lat="59.343342296661" lon="18.009182618181">
        <ele>68.6</ele>
        <time>2019-08-19T16:44:05Z</time>
      </trkpt>
      <trkpt lat="59.343381021039" lon="18.009052195817">
        <ele>68.4</ele>
        <time>2019-08-19T16:44:06Z</time>
      </trkpt>
      <trkpt lat="59.343542456433" lon="18.008356833393">
        <ele>67.4</ele>
        <time>2019-08-19T16:44:10Z</time>
      </trkpt>
      <trkpt lat="59.343596268231" lon="18.008239486793">
        <ele>67</ele>
        <time>2019-08-19T16:44:11Z</time>
      </trkpt>
      <trkpt lat="59.343814784364" lon="18.007792731523">
        <ele>66.2</ele>
        <time>2019-08-19T16:44:15Z</time>
      </trkpt>
      <trkpt lat="59.343997593603" lon="18.007579495987">
        <ele>66.4</ele>
        <time>2019-08-19T16:44:18Z</time>
      </trkpt>
      <trkpt lat="59.344269083344" lon="18.007405906838">
        <ele>67.4</ele>
        <time>2019-08-19T16:44:22Z</time>
      </trkpt>
      <trkpt lat="59.344341083865" lon="18.007390903237">
        <ele>67.6</ele>
        <time>2019-08-19T16:44:23Z</time>
      </trkpt>
      <trkpt lat="59.344584494241" lon="18.007345640977">
        <ele>68.2</ele>
        <time>2019-08-19T16:44:27Z</time>
      </trkpt>
      <trkpt lat="59.344682981566" lon="18.007300630174">
        <ele>68.2</ele>
        <time>2019-08-19T16:44:29Z</time>
      </trkpt>
      <trkpt lat="59.3448410642" lon="18.007316471965">
        <ele>68.2</ele>
        <time>2019-08-19T16:44:32Z</time>
      </trkpt>
      <trkpt lat="59.344966960338" lon="18.007355866895">
        <ele>68.2</ele>
        <time>2019-08-19T16:44:34Z</time>
      </trkpt>
      <trkpt lat="59.345507928164" lon="18.007749061824">
        <ele>68.2</ele>
        <time>2019-08-19T16:44:42Z</time>
      </trkpt>
      <trkpt lat="59.345713368533" lon="18.007890883572">
        <ele>68.6</ele>
        <time>2019-08-19T16:44:45Z</time>
      </trkpt>
      <trkpt lat="59.346268082675" lon="18.008344679638">
        <ele>69.2</ele>
        <time>2019-08-19T16:44:55Z</time>
      </trkpt>
      <trkpt lat="59.346530519964" lon="18.008551125835">
        <ele>69.6</ele>
        <time>2019-08-19T16:44:59Z</time>
      </trkpt>
      <trkpt lat="59.34686361667" lon="18.008844324697">
        <ele>70.6</ele>
        <time>2019-08-19T16:45:04Z</time>
      </trkpt>
      <trkpt lat="59.347406260876" lon="18.009256127444">
        <ele>70.8</ele>
        <time>2019-08-19T16:45:12Z</time>
      </trkpt>
      <trkpt lat="59.347884699728" lon="18.009247745544">
        <ele>71.8</ele>
        <time>2019-08-19T16:45:18Z</time>
      </trkpt>
      <trkpt lat="59.348096677979" lon="18.009093183308">
        <ele>73</ele>
        <time>2019-08-19T16:45:21Z</time>
      </trkpt>
      <trkpt lat="59.348364731141" lon="18.008693701954">
        <ele>74</ele>
        <time>2019-08-19T16:45:26Z</time>
      </trkpt>
      <trkpt lat="59.348442179897" lon="18.008520783357">
        <ele>74.2</ele>
        <time>2019-08-19T16:45:28Z</time>
      </trkpt>
      <trkpt lat="59.348518455187" lon="18.008463283523">
        <ele>74.4</ele>
        <time>2019-08-19T16:45:30Z</time>
      </trkpt>
      <trkpt lat="59.348593557011" lon="18.008533859121">
        <ele>74.4</ele>
        <time>2019-08-19T16:45:32Z</time>
      </trkpt>
      <trkpt lat="59.348692798707" lon="18.008710549573">
        <ele>74.4</ele>
        <time>2019-08-19T16:45:34Z</time>
      </trkpt>
      <trkpt lat="59.348747448695" lon="18.0088977174">
        <ele>74.4</ele>
        <time>2019-08-19T16:45:36Z</time>
      </trkpt>
      <trkpt lat="59.348749376532" lon="18.00919778942">
        <ele>75.2</ele>
        <time>2019-08-19T16:45:40Z</time>
      </trkpt>
      <trkpt lat="59.348747281057" lon="18.00944170271">
        <ele>76.2</ele>
        <time>2019-08-19T16:45:43Z</time>
      </trkpt>
      <trkpt lat="59.348956493281" lon="18.010339236562">
        <ele>77.2</ele>
        <time>2019-08-19T16:45:54Z</time>
      </trkpt>
      <trkpt lat="59.349068224008" lon="18.010758415381">
        <ele>77.6</ele>
        <time>2019-08-19T16:45:59Z</time>
      </trkpt>
      <trkpt lat="59.349121868168" lon="18.011050608415">
        <ele>78.2</ele>
        <time>2019-08-19T16:46:02Z</time>
      </trkpt>
      <trkpt lat="59.34918121202" lon="18.011225957763">
        <ele>78</ele>
        <time>2019-08-19T16:46:04Z</time>
      </trkpt>
      <trkpt lat="59.349587482713" lon="18.011965241343">
        <ele>78.4</ele>
        <time>2019-08-19T16:46:13Z</time>
      </trkpt>
      <trkpt lat="59.349642467977" lon="18.012041600452">
        <ele>78.8</ele>
        <time>2019-08-19T16:46:14Z</time>
      </trkpt>
      <trkpt lat="59.349765178993" lon="18.012167748047">
        <ele>79.4</ele>
        <time>2019-08-19T16:46:16Z</time>
      </trkpt>
      <trkpt lat="59.349832820926" lon="18.012213010307">
        <ele>79.6</ele>
        <time>2019-08-19T16:46:17Z</time>
      </trkpt>
      <trkpt lat="59.350368843431" lon="18.012264558992">
        <ele>80.6</ele>
        <time>2019-08-19T16:46:25Z</time>
      </trkpt>
      <trkpt lat="59.350554586335" lon="18.012163389459">
        <ele>81.6</ele>
        <time>2019-08-19T16:46:28Z</time>
      </trkpt>
      <trkpt lat="59.350613091997" lon="18.012117708104">
        <ele>81.8</ele>
        <time>2019-08-19T16:46:29Z</time>
      </trkpt>
      <trkpt lat="59.350776371409" lon="18.01196130185">
        <ele>83</ele>
        <time>2019-08-19T16:46:32Z</time>
      </trkpt>
      <trkpt lat="59.35087351763" lon="18.011846553639">
        <ele>84</ele>
        <time>2019-08-19T16:46:34Z</time>
      </trkpt>
      <trkpt lat="59.350924814858" lon="18.011800956103">
        <ele>84.2</ele>
        <time>2019-08-19T16:46:35Z</time>
      </trkpt>
      <trkpt lat="59.351084322415" lon="18.011669108816">
        <ele>84.6</ele>
        <time>2019-08-19T16:46:38Z</time>
      </trkpt>
      <trkpt lat="59.351183564111" lon="18.011538937909">
        <ele>85.4</ele>
        <time>2019-08-19T16:46:40Z</time>
      </trkpt>
      <trkpt lat="59.351283308721" lon="18.011406084794">
        <ele>85.8</ele>
        <time>2019-08-19T16:46:42Z</time>
      </trkpt>
      <trkpt lat="59.351395123267" lon="18.011311285505">
        <ele>86</ele>
        <time>2019-08-19T16:46:44Z</time>
      </trkpt>
      <trkpt lat="59.351580530895" lon="18.011247750703">
        <ele>86.2</ele>
        <time>2019-08-19T16:46:47Z</time>
      </trkpt>
      <trkpt lat="59.352128874793" lon="18.011300137578">
        <ele>85.2</ele>
        <time>2019-08-19T16:46:55Z</time>
      </trkpt>
      <trkpt lat="59.352382678725" lon="18.011425446983">
        <ele>85</ele>
        <time>2019-08-19T16:46:59Z</time>
      </trkpt>
      <trkpt lat="59.35308382466" lon="18.010413751653">
        <ele>84.2</ele>
        <time>2019-08-19T16:47:04Z</time>
      </trkpt>
      <trkpt lat="59.353220281992" lon="18.011472804718">
        <ele>84.8</ele>
        <time>2019-08-19T16:47:12Z</time>
      </trkpt>
      <trkpt lat="59.353342657732" lon="18.011406000975">
        <ele>85</ele>
        <time>2019-08-19T16:47:14Z</time>
      </trkpt>
      <trkpt lat="59.353412898054" lon="18.011268034901">
        <ele>85</ele>
        <time>2019-08-19T16:47:16Z</time>
      </trkpt>
      <trkpt lat="59.353486826412" lon="18.011055721374">
        <ele>85.4</ele>
        <time>2019-08-19T16:47:19Z</time>
      </trkpt>
      <trkpt lat="59.353523790591" lon="18.011026300905">
        <ele>85.6</ele>
        <time>2019-08-19T16:47:20Z</time>
      </trkpt>
      <trkpt lat="59.353762171827" lon="18.011477247125">
        <ele>85.6</ele>
        <time>2019-08-19T16:47:28Z</time>
      </trkpt>
      <trkpt lat="59.35381137358" lon="18.011613201543">
        <ele>85.2</ele>
        <time>2019-08-19T16:47:30Z</time>
      </trkpt>
      <trkpt lat="59.35381724091" lon="18.011763991924">
        <ele>84.8</ele>
        <time>2019-08-19T16:47:32Z</time>
      </trkpt>
      <trkpt lat="59.353764267302" lon="18.011906735681">
        <ele>84.4</ele>
        <time>2019-08-19T16:47:34Z</time>
      </trkpt>
      <trkpt lat="59.353725710562" lon="18.011958535823">
        <ele>84.2</ele>
        <time>2019-08-19T16:47:35Z</time>
      </trkpt>
      <trkpt lat="59.353670892936" lon="18.012155342835">
        <ele>83</ele>
        <time>2019-08-19T16:47:38Z</time>
      </trkpt>
      <trkpt lat="59.353684555433" lon="18.012233797419">
        <ele>82.8</ele>
        <time>2019-08-19T16:47:39Z</time>
      </trkpt>
      <trkpt lat="59.353778181256" lon="18.01248181784">
        <ele>81.6</ele>
        <time>2019-08-19T16:47:42Z</time>
      </trkpt>
      <trkpt lat="59.353859318048" lon="18.012637134447">
        <ele>80.6</ele>
        <time>2019-08-19T16:47:44Z</time>
      </trkpt>
      <trkpt lat="59.353906340507" lon="18.012680887965">
        <ele>80.2</ele>
        <time>2019-08-19T16:47:45Z</time>
      </trkpt>
      <trkpt lat="59.353974904449" lon="18.012690275693">
        <ele>80</ele>
        <time>2019-08-19T16:47:46Z</time>
      </trkpt>
      <trkpt lat="59.354177494972" lon="18.012669069486">
        <ele>79.4</ele>
        <time>2019-08-19T16:47:49Z</time>
      </trkpt>
      <trkpt lat="59.354228708381" lon="18.012676026463">
        <ele>79.2</ele>
        <time>2019-08-19T16:47:50Z</time>
      </trkpt>
      <trkpt lat="59.3544299578" lon="18.012882975574">
        <ele>78.2</ele>
        <time>2019-08-19T16:47:57Z</time>
      </trkpt>
      <trkpt lat="59.354588459529" lon="18.012876772968">
        <ele>77.8</ele>
        <time>2019-08-19T16:47:59Z</time>
      </trkpt>
      <trkpt lat="59.354876545432" lon="18.012670494409">
        <ele>77</ele>
        <time>2019-08-19T16:48:03Z</time>
      </trkpt>
      <trkpt lat="59.355099420153" lon="18.012511741223">
        <ele>76.4</ele>
        <time>2019-08-19T16:48:06Z</time>
      </trkpt>
      <trkpt lat="59.355250294353" lon="18.012443680195">
        <ele>76</ele>
        <time>2019-08-19T16:48:08Z</time>
      </trkpt>
      <trkpt lat="59.355359845786" lon="18.012286351932">
        <ele>75.6</ele>
        <time>2019-08-19T16:48:10Z</time>
      </trkpt>
      <trkpt lat="59.355507451045" lon="18.011924756766">
        <ele>74.8</ele>
        <time>2019-08-19T16:48:14Z</time>
      </trkpt>
      <trkpt lat="59.355538966989" lon="18.011846386001">
        <ele>74.4</ele>
        <time>2019-08-19T16:48:15Z</time>
      </trkpt>
      <trkpt lat="59.355574590064" lon="18.011796848972">
        <ele>74</ele>
        <time>2019-08-19T16:48:16Z</time>
      </trkpt>
      <trkpt lat="59.355607111836" lon="18.011740103509">
        <ele>73.6</ele>
        <time>2019-08-19T16:48:17Z</time>
      </trkpt>
      <trkpt lat="59.355686153153" lon="18.011538351176">
        <ele>72.6</ele>
        <time>2019-08-19T16:48:22Z</time>
      </trkpt>
      <trkpt lat="59.355687410438" lon="18.011531980932">
        <ele>72.6</ele>
        <time>2019-08-19T16:48:24Z</time>
      </trkpt>
      <trkpt lat="59.35567550814" lon="18.011585038359">
        <ele>72.4</ele>
        <time>2019-08-19T16:48:26Z</time>
      </trkpt>
      <trkpt lat="59.355480461327" lon="18.012215021963">
        <ele>71.4</ele>
        <time>2019-08-19T16:48:34Z</time>
      </trkpt>
      <trkpt lat="59.355286336523" lon="18.013215066452">
        <ele>71.2</ele>
        <time>2019-08-19T16:48:44Z</time>
      </trkpt>
      <trkpt lat="59.355113334107" lon="18.013667186138">
        <ele>71</ele>
        <time>2019-08-19T16:48:48Z</time>
      </trkpt>
      <trkpt lat="59.354870678102" lon="18.014644180402">
        <ele>72</ele>
        <time>2019-08-19T16:48:57Z</time>
      </trkpt>
      <trkpt lat="59.354778812478" lon="18.014886668769">
        <ele>72.4</ele>
        <time>2019-08-19T16:49:00Z</time>
      </trkpt>
      <trkpt lat="59.354713517477" lon="18.015324790682">
        <ele>73.2</ele>
        <time>2019-08-19T16:49:40Z</time>
      </trkpt>
      <trkpt lat="59.35477529208" lon="18.015391259149">
        <ele>74.2</ele>
        <time>2019-08-19T16:49:42Z</time>
      </trkpt>
      <trkpt lat="59.354935051094" lon="18.015598962631">
        <ele>73.8</ele>
        <time>2019-08-19T16:49:46Z</time>
      </trkpt>
      <trkpt lat="59.355021468483" lon="18.015718572344">
        <ele>74</ele>
        <time>2019-08-19T16:49:48Z</time>
      </trkpt>
      <trkpt lat="59.355109478433" lon="18.015767019726">
        <ele>73.6</ele>
        <time>2019-08-19T16:49:50Z</time>
      </trkpt>
      <trkpt lat="59.355188855026" lon="18.015841031903">
        <ele>73.6</ele>
        <time>2019-08-19T16:49:52Z</time>
      </trkpt>
      <trkpt lat="59.355309973481" lon="18.016038341829">
        <ele>73.8</ele>
        <time>2019-08-19T16:49:55Z</time>
      </trkpt>
      <trkpt lat="59.355368395324" lon="18.016172619867">
        <ele>74.4</ele>
        <time>2019-08-19T16:49:57Z</time>
      </trkpt>
      <trkpt lat="59.355422877674" lon="18.016300946756">
        <ele>74.4</ele>
        <time>2019-08-19T16:49:59Z</time>
      </trkpt>
      <trkpt lat="59.355501751353" lon="18.01636431392">
        <ele>74.4</ele>
        <time>2019-08-19T16:50:01Z</time>
      </trkpt>
      <trkpt lat="59.356044144102" lon="18.016512841188">
        <ele>74</ele>
        <time>2019-08-19T16:50:10Z</time>
      </trkpt>
      <trkpt lat="59.356552087242" lon="18.016637899136">
        <ele>75.2</ele>
        <time>2019-08-19T16:50:16Z</time>
      </trkpt>
      <trkpt lat="59.357154745852" lon="18.016789360069">
        <ele>75.6</ele>
        <time>2019-08-19T16:50:23Z</time>
      </trkpt>
      <trkpt lat="59.357738209911" lon="18.017002427967">
        <ele>74.8</ele>
        <time>2019-08-19T16:50:30Z</time>
      </trkpt>
      <trkpt lat="59.358295187166" lon="18.017203593567">
        <ele>75.4</ele>
        <time>2019-08-19T16:50:38Z</time>
      </trkpt>
      <trkpt lat="59.358681425118" lon="18.017316078665">
        <ele>76.4</ele>
        <time>2019-08-19T16:50:45Z</time>
      </trkpt>
      <trkpt lat="59.359256758734" lon="18.01741456599">
        <ele>76.6</ele>
        <time>2019-08-19T16:50:54Z</time>
      </trkpt>
      <trkpt lat="59.359607289792" lon="18.017434514912">
        <ele>77.4</ele>
        <time>2019-08-19T16:51:00Z</time>
      </trkpt>
      <trkpt lat="59.359909792563" lon="18.017435856016">
        <ele>78.6</ele>
        <time>2019-08-19T16:51:05Z</time>
      </trkpt>
      <trkpt lat="59.360111628715" lon="18.017412554334">
        <ele>79.6</ele>
        <time>2019-08-19T16:51:09Z</time>
      </trkpt>
      <trkpt lat="59.360429051268" lon="18.017398724199">
        <ele>80.2</ele>
        <time>2019-08-19T16:51:15Z</time>
      </trkpt>
      <trkpt lat="59.360590905757" lon="18.017368297902">
        <ele>80.6</ele>
        <time>2019-08-19T16:51:18Z</time>
      </trkpt>
      <trkpt lat="59.360841859843" lon="18.017313396457">
        <ele>82</ele>
        <time>2019-08-19T16:51:24Z</time>
      </trkpt>
      <trkpt lat="59.360948729068" lon="18.01726872093">
        <ele>83.4</ele>
        <time>2019-08-19T16:51:27Z</time>
      </trkpt>
      <trkpt lat="59.361082504192" lon="18.017235444787">
        <ele>84.6</ele>
        <time>2019-08-19T16:51:31Z</time>
      </trkpt>
      <trkpt lat="59.36124863345" lon="18.017183309369">
        <ele>85.8</ele>
        <time>2019-08-19T16:51:36Z</time>
      </trkpt>
      <trkpt lat="59.361436974743" lon="18.017090605555">
        <ele>86.8</ele>
        <time>2019-08-19T16:51:40Z</time>
      </trkpt>
      <trkpt lat="59.361553650791" lon="18.016933864025">
        <ele>88.2</ele>
        <time>2019-08-19T16:51:44Z</time>
      </trkpt>
      <trkpt lat="59.361652724849" lon="18.016911232895">
        <ele>89.4</ele>
        <time>2019-08-19T16:51:47Z</time>
      </trkpt>
      <trkpt lat="59.361891860456" lon="18.016791623182">
        <ele>89.6</ele>
        <time>2019-08-19T16:51:52Z</time>
      </trkpt>
      <trkpt lat="59.362129235864" lon="18.016551481747">
        <ele>88.2</ele>
        <time>2019-08-19T16:51:57Z</time>
      </trkpt>
      <trkpt lat="59.362213138683" lon="18.016415024415">
        <ele>88</ele>
        <time>2019-08-19T16:51:59Z</time>
      </trkpt>
      <trkpt lat="59.36249250741" lon="18.01618913221">
        <ele>87.8</ele>
        <time>2019-08-19T16:52:04Z</time>
      </trkpt>
      <trkpt lat="59.362748574455" lon="18.016065583004">
        <ele>87</ele>
        <time>2019-08-19T16:52:08Z</time>
      </trkpt>
      <trkpt lat="59.363263139296" lon="18.01588067829">
        <ele>86.6</ele>
        <time>2019-08-19T16:52:16Z</time>
      </trkpt>
      <trkpt lat="59.36342289831" lon="18.016105145572">
        <ele>86.6</ele>
        <time>2019-08-19T16:52:20Z</time>
      </trkpt>
      <trkpt lat="59.363560529108" lon="18.016196592101">
        <ele>86</ele>
        <time>2019-08-19T16:52:23Z</time>
      </trkpt>
      <trkpt lat="59.363646443583" lon="18.016339838772">
        <ele>85.4</ele>
        <time>2019-08-19T16:52:25Z</time>
      </trkpt>
      <trkpt lat="59.363686006151" lon="18.016513260283">
        <ele>84.8</ele>
        <time>2019-08-19T16:52:27Z</time>
      </trkpt>
      <trkpt lat="59.363735794637" lon="18.016734626262">
        <ele>83.8</ele>
        <time>2019-08-19T16:52:30Z</time>
      </trkpt>
      <trkpt lat="59.363834198143" lon="18.016962111028">
        <ele>83.4</ele>
        <time>2019-08-19T16:52:33Z</time>
      </trkpt>
      <trkpt lat="59.363928494518" lon="18.016936378595">
        <ele>83.2</ele>
        <time>2019-08-19T16:52:35Z</time>
      </trkpt>
      <trkpt lat="59.364086996247" lon="18.016798999254">
        <ele>83.2</ele>
        <time>2019-08-19T16:52:37Z</time>
      </trkpt>
      <trkpt lat="59.364177856043" lon="18.016605042088">
        <ele>83</ele>
        <time>2019-08-19T16:52:39Z</time>
      </trkpt>
      <trkpt lat="59.364284389992" lon="18.016306981724">
        <ele>82.6</ele>
        <time>2019-08-19T16:52:42Z</time>
      </trkpt>
      <trkpt lat="59.364393773787" lon="18.016107911599">
        <ele>82</ele>
        <time>2019-08-19T16:52:45Z</time>
      </trkpt>
      <trkpt lat="59.364476922235" lon="18.015700299802">
        <ele>81.4</ele>
        <time>2019-08-19T16:52:48Z</time>
      </trkpt>
      <trkpt lat="59.364434342183" lon="18.01532244375">
        <ele>81</ele>
        <time>2019-08-19T16:52:50Z</time>
      </trkpt>
      <trkpt lat="59.364408525931" lon="18.01503662096">
        <ele>80.6</ele>
        <time>2019-08-19T16:52:52Z</time>
      </trkpt>
      <trkpt lat="59.36440693337" lon="18.014919777274">
        <ele>80</ele>
        <time>2019-08-19T16:52:53Z</time>
      </trkpt>
      <trkpt lat="59.364413555071" lon="18.014814249153">
        <ele>79.4</ele>
        <time>2019-08-19T16:52:54Z</time>
      </trkpt>
      <trkpt lat="59.364412633062" lon="18.014684497341">
        <ele>78.6</ele>
        <time>2019-08-19T16:52:55Z</time>
      </trkpt>
      <trkpt lat="59.364509360188" lon="18.014582992532">
        <ele>77</ele>
        <time>2019-08-19T16:52:59Z</time>
      </trkpt>
      <trkpt lat="59.364571721524" lon="18.014649712456">
        <ele>76.8</ele>
        <time>2019-08-19T16:53:01Z</time>
      </trkpt>
      <trkpt lat="59.364599465613" lon="18.014668739369">
        <ele>76.6</ele>
        <time>2019-08-19T16:53:02Z</time>
      </trkpt>
      <trkpt lat="59.364756961514" lon="18.014836964102">
        <ele>75.8</ele>
        <time>2019-08-19T16:53:05Z</time>
      </trkpt>
      <trkpt lat="59.364881013634" lon="18.01495028739">
        <ele>75.6</ele>
        <time>2019-08-19T16:53:07Z</time>
      </trkpt>
      <trkpt lat="59.36506826528" lon="18.014902678198">
        <ele>75.8</ele>
        <time>2019-08-19T16:53:10Z</time>
      </trkpt>
      <trkpt lat="59.3653012821" lon="18.014689107386">
        <ele>76</ele>
        <time>2019-08-19T16:53:14Z</time>
      </trkpt>
      <trkpt lat="59.365764214437" lon="18.014120730747">
        <ele>76</ele>
        <time>2019-08-19T16:53:23Z</time>
      </trkpt>
      <trkpt lat="59.366232343552" lon="18.013450933118">
        <ele>76.8</ele>
        <time>2019-08-19T16:53:32Z</time>
      </trkpt>
      <trkpt lat="59.366674991691" lon="18.012759761644">
        <ele>76.2</ele>
        <time>2019-08-19T16:53:40Z</time>
      </trkpt>
      <trkpt lat="59.367168266506" lon="18.012076469156">
        <ele>76.2</ele>
        <time>2019-08-19T16:53:49Z</time>
      </trkpt>
      <trkpt lat="59.36729282154" lon="18.011950740656">
        <ele>75.6</ele>
        <time>2019-08-19T16:53:51Z</time>
      </trkpt>
      <trkpt lat="59.367545452006" lon="18.011587301472">
        <ele>74.2</ele>
        <time>2019-08-19T16:53:55Z</time>
      </trkpt>
      <trkpt lat="59.367715772214" lon="18.011361493086">
        <ele>72.6</ele>
        <time>2019-08-19T16:53:58Z</time>
      </trkpt>
      <trkpt lat="59.367808643666" lon="18.011249091807">
        <ele>71.8</ele>
        <time>2019-08-19T16:54:00Z</time>
      </trkpt>
      <trkpt lat="59.367847032768" lon="18.011197794579">
        <ele>71</ele>
        <time>2019-08-19T16:54:01Z</time>
      </trkpt>
      <trkpt lat="59.367952309432" lon="18.011113388846">
        <ele>70</ele>
        <time>2019-08-19T16:54:04Z</time>
      </trkpt>
      <trkpt lat="59.367984244471" lon="18.011116490149">
        <ele>69.8</ele>
        <time>2019-08-19T16:54:05Z</time>
      </trkpt>
      <trkpt lat="59.368016850062" lon="18.011137109623">
        <ele>69.8</ele>
        <time>2019-08-19T16:54:06Z</time>
      </trkpt>
      <trkpt lat="59.368087258022" lon="18.011185557005">
        <ele>69.6</ele>
        <time>2019-08-19T16:54:08Z</time>
      </trkpt>
      <trkpt lat="59.36822237425" lon="18.010890430306">
        <ele>69.6</ele>
        <time>2019-08-19T16:54:13Z</time>
      </trkpt>
      <trkpt lat="59.368425467687" lon="18.010632938338">
        <ele>71</ele>
        <time>2019-08-19T16:54:18Z</time>
      </trkpt>
      <trkpt lat="59.368588830918" lon="18.010395311473">
        <ele>72.2</ele>
        <time>2019-08-19T16:54:22Z</time>
      </trkpt>
      <trkpt lat="59.368687234424" lon="18.010222728152">
        <ele>72.6</ele>
        <time>2019-08-19T16:54:25Z</time>
      </trkpt>
      <trkpt lat="59.368750769226" lon="18.009885356677">
        <ele>72.6</ele>
        <time>2019-08-19T16:54:28Z</time>
      </trkpt>
      <trkpt lat="59.368858644279" lon="18.009506913892">
        <ele>71.8</ele>
        <time>2019-08-19T16:54:31Z</time>
      </trkpt>
      <trkpt lat="59.368955287586" lon="18.00928077023">
        <ele>71</ele>
        <time>2019-08-19T16:54:33Z</time>
      </trkpt>
      <trkpt lat="59.369414783344" lon="18.008712896505">
        <ele>70</ele>
        <time>2019-08-19T16:54:40Z</time>
      </trkpt>
      <trkpt lat="59.369958014283" lon="18.008410980467">
        <ele>69.6</ele>
        <time>2019-08-19T16:54:47Z</time>
      </trkpt>
      <trkpt lat="59.370111905967" lon="18.008337974118">
        <ele>69.8</ele>
        <time>2019-08-19T16:54:49Z</time>
      </trkpt>
      <trkpt lat="59.370696208216" lon="18.008062712522">
        <ele>70</ele>
        <time>2019-08-19T16:54:56Z</time>
      </trkpt>
      <trkpt lat="59.371316468816" lon="18.007904043155">
        <ele>70.6</ele>
        <time>2019-08-19T16:55:03Z</time>
      </trkpt>
      <trkpt lat="59.371853329511" lon="18.007630122663">
        <ele>70.4</ele>
        <time>2019-08-19T16:55:09Z</time>
      </trkpt>
      <trkpt lat="59.372214254125" lon="18.007534652822">
        <ele>68.8</ele>
        <time>2019-08-19T16:55:14Z</time>
      </trkpt>
      <trkpt lat="59.372272256873" lon="18.00753901141">
        <ele>68.6</ele>
        <time>2019-08-19T16:55:15Z</time>
      </trkpt>
      <trkpt lat="59.372512063032" lon="18.007487714182">
        <ele>68.4</ele>
        <time>2019-08-19T16:55:23Z</time>
      </trkpt>
      <trkpt lat="59.372669307476" lon="18.007293254102">
        <ele>68</ele>
        <time>2019-08-19T16:55:26Z</time>
      </trkpt>
      <trkpt lat="59.372734770115" lon="18.007235502811">
        <ele>67.6</ele>
        <time>2019-08-19T16:55:27Z</time>
      </trkpt>
      <trkpt lat="59.372942138321" lon="18.007108265569">
        <ele>66.4</ele>
        <time>2019-08-19T16:55:30Z</time>
      </trkpt>
      <trkpt lat="59.373166605603" lon="18.006903244295">
        <ele>65.2</ele>
        <time>2019-08-19T16:55:33Z</time>
      </trkpt>
      <trkpt lat="59.373691983095" lon="18.006272590139">
        <ele>65</ele>
        <time>2019-08-19T16:55:40Z</time>
      </trkpt>
      <trkpt lat="59.374224485202" lon="18.005885094902">
        <ele>65.8</ele>
        <time>2019-08-19T16:55:47Z</time>
      </trkpt>
      <trkpt lat="59.374358344145" lon="18.005758444393">
        <ele>66.2</ele>
        <time>2019-08-19T16:55:49Z</time>
      </trkpt>
      <trkpt lat="59.374766626494" lon="18.00545443288">
        <ele>67.2</ele>
        <time>2019-08-19T16:55:55Z</time>
      </trkpt>
      <trkpt lat="59.375282532439" lon="18.005063920159">
        <ele>67.4</ele>
        <time>2019-08-19T16:56:03Z</time>
      </trkpt>
      <trkpt lat="59.37559341711" lon="18.004821347973">
        <ele>68.4</ele>
        <time>2019-08-19T16:56:08Z</time>
      </trkpt>
      <trkpt lat="59.37604017238" lon="18.004592103008">
        <ele>69.2</ele>
        <time>2019-08-19T16:56:15Z</time>
      </trkpt>
      <trkpt lat="59.376097756033" lon="18.004548852404">
        <ele>69.4</ele>
        <time>2019-08-19T16:56:16Z</time>
      </trkpt>
      <trkpt lat="59.376461698131" lon="18.004386495001">
        <ele>70.4</ele>
        <time>2019-08-19T16:56:22Z</time>
      </trkpt>
      <trkpt lat="59.376625899552" lon="18.004276189197">
        <ele>71.4</ele>
        <time>2019-08-19T16:56:25Z</time>
      </trkpt>
      <trkpt lat="59.376676777685" lon="18.004225394883">
        <ele>71.6</ele>
        <time>2019-08-19T16:56:26Z</time>
      </trkpt>
      <trkpt lat="59.376734864252" lon="18.004198237527">
        <ele>72</ele>
        <time>2019-08-19T16:56:27Z</time>
      </trkpt>
      <trkpt lat="59.377098219617" lon="18.004048704431">
        <ele>73</ele>
        <time>2019-08-19T16:56:34Z</time>
      </trkpt>
      <trkpt lat="59.377130573751" lon="18.004044932576">
        <ele>73.2</ele>
        <time>2019-08-19T16:56:35Z</time>
      </trkpt>
      <trkpt lat="59.377217913149" lon="18.003841503863">
        <ele>74</ele>
        <time>2019-08-19T16:56:37Z</time>
      </trkpt>
      <trkpt lat="59.377469705425" lon="18.003442273966">
        <ele>75</ele>
        <time>2019-08-19T16:56:43Z</time>
      </trkpt>
      <trkpt lat="59.377520751196" lon="18.003421486854">
        <ele>75.4</ele>
        <time>2019-08-19T16:56:44Z</time>
      </trkpt>
      <trkpt lat="59.377657376166" lon="18.003420229569">
        <ele>76.4</ele>
        <time>2019-08-19T16:56:47Z</time>
      </trkpt>
      <trkpt lat="59.37776935835" lon="18.003374799671">
        <ele>76.6</ele>
        <time>2019-08-19T16:56:49Z</time>
      </trkpt>
      <trkpt lat="59.377888968063" lon="18.003274971242">
        <ele>76.8</ele>
        <time>2019-08-19T16:56:51Z</time>
      </trkpt>
      <trkpt lat="59.37799315508" lon="18.003130467286">
        <ele>76.8</ele>
        <time>2019-08-19T16:56:53Z</time>
      </trkpt>
      <trkpt lat="59.378094492251" lon="18.003020412939">
        <ele>77</ele>
        <time>2019-08-19T16:56:55Z</time>
      </trkpt>
      <trkpt lat="59.378213179955" lon="18.00295578849">
        <ele>77.6</ele>
        <time>2019-08-19T16:56:57Z</time>
      </trkpt>
      <trkpt lat="59.378762194405" lon="18.002481037674">
        <ele>77.8</ele>
        <time>2019-08-19T16:57:06Z</time>
      </trkpt>
      <trkpt lat="59.379295786159" lon="18.002074096429">
        <ele>77.4</ele>
        <time>2019-08-19T16:57:13Z</time>
      </trkpt>
      <trkpt lat="59.379795682675" lon="18.001662209863">
        <ele>76.8</ele>
        <time>2019-08-19T16:57:20Z</time>
      </trkpt>
      <trkpt lat="59.380073039746" lon="18.001464983756">
        <ele>76.4</ele>
        <time>2019-08-19T16:57:24Z</time>
      </trkpt>
      <trkpt lat="59.380296752657" lon="18.001395581624">
        <ele>75.4</ele>
        <time>2019-08-19T16:57:27Z</time>
      </trkpt>
      <trkpt lat="59.380379062915" lon="18.001401700411">
        <ele>75</ele>
        <time>2019-08-19T16:57:28Z</time>
      </trkpt>
      <trkpt lat="59.380726744127" lon="18.001484345945">
        <ele>74</ele>
        <time>2019-08-19T16:57:32Z</time>
      </trkpt>
      <trkpt lat="59.380990438701" lon="18.001553915715">
        <ele>72.6</ele>
        <time>2019-08-19T16:57:35Z</time>
      </trkpt>
      <trkpt lat="59.381265365021" lon="18.001611918463">
        <ele>71.4</ele>
        <time>2019-08-19T16:57:39Z</time>
      </trkpt>
      <trkpt lat="59.381310208186" lon="18.001609152436">
        <ele>71.2</ele>
        <time>2019-08-19T16:57:40Z</time>
      </trkpt>
      <trkpt lat="59.381400648887" lon="18.001533547698">
        <ele>70.8</ele>
        <time>2019-08-19T16:57:42Z</time>
      </trkpt>
      <trkpt lat="59.381454376866" lon="18.001483759212">
        <ele>70.4</ele>
        <time>2019-08-19T16:57:43Z</time>
      </trkpt>
      <trkpt lat="59.381519923324" lon="18.001227273072">
        <ele>69.8</ele>
        <time>2019-08-19T16:57:45Z</time>
      </trkpt>
      <trkpt lat="59.381987214249" lon="18.000578514012">
        <ele>69.8</ele>
        <time>2019-08-19T16:57:53Z</time>
      </trkpt>
      <trkpt lat="59.382495157389" lon="18.000011310839">
        <ele>69.8</ele>
        <time>2019-08-19T16:58:01Z</time>
      </trkpt>
      <trkpt lat="59.382832947959" lon="17.999556257488">
        <ele>71</ele>
        <time>2019-08-19T16:58:07Z</time>
      </trkpt>
      <trkpt lat="59.382905535213" lon="17.999343608685">
        <ele>71.4</ele>
        <time>2019-08-19T16:58:09Z</time>
      </trkpt>
      <trkpt lat="59.383002262339" lon="17.999001794803">
        <ele>71.4</ele>
        <time>2019-08-19T16:58:12Z</time>
      </trkpt>
      <trkpt lat="59.383109299202" lon="17.998832564242">
        <ele>71.4</ele>
        <time>2019-08-19T16:58:14Z</time>
      </trkpt>
      <trkpt lat="59.383402078969" lon="17.99844632629">
        <ele>70.2</ele>
        <time>2019-08-19T16:58:19Z</time>
      </trkpt>
      <trkpt lat="59.383739450444" lon="17.998013149698">
        <ele>69.6</ele>
        <time>2019-08-19T16:58:25Z</time>
      </trkpt>
      <trkpt lat="59.383867693514" lon="17.997965708144">
        <ele>69.8</ele>
        <time>2019-08-19T16:58:27Z</time>
      </trkpt>
      <trkpt lat="59.384415450679" lon="17.997928157232">
        <ele>71.2</ele>
        <time>2019-08-19T16:58:35Z</time>
      </trkpt>
      <trkpt lat="59.38448493663" lon="17.997920529703">
        <ele>71.2</ele>
        <time>2019-08-19T16:58:36Z</time>
      </trkpt>
      <trkpt lat="59.38502892194" lon="17.997879961307">
        <ele>72.2</ele>
        <time>2019-08-19T16:58:44Z</time>
      </trkpt>
      <trkpt lat="59.38509513895" lon="17.99787970985">
        <ele>72.2</ele>
        <time>2019-08-19T16:58:45Z</time>
      </trkpt>
      <trkpt lat="59.385680530846" lon="17.997865712077">
        <ele>72.6</ele>
        <time>2019-08-19T16:58:54Z</time>
      </trkpt>
      <trkpt lat="59.385804750604" lon="17.99785540234">
        <ele>73.4</ele>
        <time>2019-08-19T16:58:56Z</time>
      </trkpt>
      <trkpt lat="59.386240022671" lon="17.997820030722">
        <ele>74.4</ele>
        <time>2019-08-19T16:59:03Z</time>
      </trkpt>
      <trkpt lat="59.386528779126" lon="17.997779210869">
        <ele>75.4</ele>
        <time>2019-08-19T16:59:08Z</time>
      </trkpt>
      <trkpt lat="59.386864138945" lon="17.997739815939">
        <ele>76.6</ele>
        <time>2019-08-19T16:59:14Z</time>
      </trkpt>
      <trkpt lat="59.387141747473" lon="17.997740989405">
        <ele>77.6</ele>
        <time>2019-08-19T16:59:19Z</time>
      </trkpt>
      <trkpt lat="59.387248868155" lon="17.997746270002">
        <ele>78.8</ele>
        <time>2019-08-19T16:59:21Z</time>
      </trkpt>
      <trkpt lat="59.387298656641" lon="17.997763955811">
        <ele>79</ele>
        <time>2019-08-19T16:59:22Z</time>
      </trkpt>
      <trkpt lat="59.387399826174" lon="17.997876105633">
        <ele>80.2</ele>
        <time>2019-08-19T16:59:25Z</time>
      </trkpt>
      <trkpt lat="59.387467468107" lon="17.998163688622">
        <ele>81.2</ele>
        <time>2019-08-19T16:59:29Z</time>
      </trkpt>
      <trkpt lat="59.387522872466" lon="17.998463593004">
        <ele>81.2</ele>
        <time>2019-08-19T16:59:32Z</time>
      </trkpt>
      <trkpt lat="59.387588335105" lon="17.998666015889">
        <ele>80.8</ele>
        <time>2019-08-19T16:59:34Z</time>
      </trkpt>
      <trkpt lat="59.387680452186" lon="17.998833150975">
        <ele>80.4</ele>
        <time>2019-08-19T16:59:36Z</time>
      </trkpt>
      <trkpt lat="59.387726301179" lon="17.998919149269">
        <ele>80.2</ele>
        <time>2019-08-19T16:59:37Z</time>
      </trkpt>
      <trkpt lat="59.3877647741" lon="17.998991736523">
        <ele>79.8</ele>
        <time>2019-08-19T16:59:38Z</time>
      </trkpt>
      <trkpt lat="59.387885641098" lon="17.999070610202">
        <ele>79.2</ele>
        <time>2019-08-19T16:59:40Z</time>
      </trkpt>
      <trkpt lat="59.387989241382" lon="17.999015205843">
        <ele>79.2</ele>
        <time>2019-08-19T16:59:42Z</time>
      </trkpt>
      <trkpt lat="59.388118322642" lon="17.998801551212">
        <ele>79.8</ele>
        <time>2019-08-19T16:59:45Z</time>
      </trkpt>
      <trkpt lat="59.388345472132" lon="17.998436854743">
        <ele>81.4</ele>
        <time>2019-08-19T16:59:50Z</time>
      </trkpt>
      <trkpt lat="59.388403139604" lon="17.998362674928">
        <ele>81.4</ele>
        <time>2019-08-19T16:59:51Z</time>
      </trkpt>
      <trkpt lat="59.388876549316" lon="17.997886499189">
        <ele>80.4</ele>
        <time>2019-08-19T16:59:57Z</time>
      </trkpt>
      <trkpt lat="59.389144183383" lon="17.997503781635">
        <ele>78.8</ele>
        <time>2019-08-19T17:00:00Z</time>
      </trkpt>
      <trkpt lat="59.389318275446" lon="17.997295156144">
        <ele>77.8</ele>
        <time>2019-08-19T17:00:02Z</time>
      </trkpt>
      <trkpt lat="59.389567301695" lon="17.997006399689">
        <ele>76.8</ele>
        <time>2019-08-19T17:00:05Z</time>
      </trkpt>
      <trkpt lat="59.389836193047" lon="17.99668612729">
        <ele>75.6</ele>
        <time>2019-08-19T17:00:08Z</time>
      </trkpt>
      <trkpt lat="59.389921688427" lon="17.996554782917">
        <ele>75.2</ele>
        <time>2019-08-19T17:00:09Z</time>
      </trkpt>
      <trkpt lat="59.389997628441" lon="17.996402399975">
        <ele>74.4</ele>
        <time>2019-08-19T17:00:10Z</time>
      </trkpt>
      <trkpt lat="59.390068287858" lon="17.996229732835">
        <ele>73.4</ele>
        <time>2019-08-19T17:00:11Z</time>
      </trkpt>
      <trkpt lat="59.390159734387" lon="17.996038457877">
        <ele>72.4</ele>
        <time>2019-08-19T17:00:12Z</time>
      </trkpt>
      <trkpt lat="59.390270626924" lon="17.995678119996">
        <ele>71</ele>
        <time>2019-08-19T17:00:14Z</time>
      </trkpt>
      <trkpt lat="59.390367605507" lon="17.995302443238">
        <ele>69.4</ele>
        <time>2019-08-19T17:00:16Z</time>
      </trkpt>
      <trkpt lat="59.39067245521" lon="17.994283539474">
        <ele>69.4</ele>
        <time>2019-08-19T17:00:22Z</time>
      </trkpt>
      <trkpt lat="59.390983507519" lon="17.993328254331">
        <ele>69.8</ele>
        <time>2019-08-19T17:00:29Z</time>
      </trkpt>
      <trkpt lat="59.391197078331" lon="17.992778317872">
        <ele>70.6</ele>
        <time>2019-08-19T17:00:34Z</time>
      </trkpt>
      <trkpt lat="59.391494384324" lon="17.991936691293">
        <ele>71.8</ele>
        <time>2019-08-19T17:00:42Z</time>
      </trkpt>
      <trkpt lat="59.391776016164" lon="17.991036056138">
        <ele>72.8</ele>
        <time>2019-08-19T17:00:51Z</time>
      </trkpt>
      <trkpt lat="59.391904175415" lon="17.990545212074">
        <ele>73.8</ele>
        <time>2019-08-19T17:00:56Z</time>
      </trkpt>
      <trkpt lat="59.392083045161" lon="17.989685480591">
        <ele>74.8</ele>
        <time>2019-08-19T17:01:04Z</time>
      </trkpt>
      <trkpt lat="59.392364593182" lon="17.98866129623">
        <ele>75</ele>
        <time>2019-08-19T17:01:14Z</time>
      </trkpt>
      <trkpt lat="59.392418740256" lon="17.988459711535">
        <ele>75.4</ele>
        <time>2019-08-19T17:01:16Z</time>
      </trkpt>
      <trkpt lat="59.392523262549" lon="17.988191742192">
        <ele>76</ele>
        <time>2019-08-19T17:01:19Z</time>
      </trkpt>
      <trkpt lat="59.392823418388" lon="17.987677177351">
        <ele>77</ele>
        <time>2019-08-19T17:01:25Z</time>
      </trkpt>
      <trkpt lat="59.392948811612" lon="17.987553963421">
        <ele>77.2</ele>
        <time>2019-08-19T17:01:27Z</time>
      </trkpt>
      <trkpt lat="59.393247542528" lon="17.987379200806">
        <ele>78.4</ele>
        <time>2019-08-19T17:01:31Z</time>
      </trkpt>
      <trkpt lat="59.393467148308" lon="17.987253388487">
        <ele>79.6</ele>
        <time>2019-08-19T17:01:34Z</time>
      </trkpt>
      <trkpt lat="59.393991771429" lon="17.986936133572">
        <ele>80.4</ele>
        <time>2019-08-19T17:01:42Z</time>
      </trkpt>
      <trkpt lat="59.394195283961" lon="17.986794563281">
        <ele>80.8</ele>
        <time>2019-08-19T17:01:46Z</time>
      </trkpt>
      <trkpt lat="59.394754272872" lon="17.98644763644">
        <ele>81.6</ele>
        <time>2019-08-19T17:01:54Z</time>
      </trkpt>
      <trkpt lat="59.394818310588" lon="17.986406816587">
        <ele>81.8</ele>
        <time>2019-08-19T17:01:55Z</time>
      </trkpt>
      <trkpt lat="59.39534871722" lon="17.986086963283">
        <ele>82.4</ele>
        <time>2019-08-19T17:02:03Z</time>
      </trkpt>
      <trkpt lat="59.395552481209" lon="17.985949164847">
        <ele>83</ele>
        <time>2019-08-19T17:02:06Z</time>
      </trkpt>
      <trkpt lat="59.396103255858" lon="17.985530908037">
        <ele>83</ele>
        <time>2019-08-19T17:02:14Z</time>
      </trkpt>
      <trkpt lat="59.396595524845" lon="17.985062359827">
        <ele>83.4</ele>
        <time>2019-08-19T17:02:21Z</time>
      </trkpt>
      <trkpt lat="59.397114615912" lon="17.984519128888">
        <ele>83</ele>
        <time>2019-08-19T17:02:29Z</time>
      </trkpt>
      <trkpt lat="59.397606968718" lon="17.984010347558">
        <ele>84</ele>
        <time>2019-08-19T17:02:37Z</time>
      </trkpt>
      <trkpt lat="59.398075936023" lon="17.983472229578">
        <ele>83.6</ele>
        <time>2019-08-19T17:02:45Z</time>
      </trkpt>
      <trkpt lat="59.398321693331" lon="17.983085153436">
        <ele>83.8</ele>
        <time>2019-08-19T17:02:50Z</time>
      </trkpt>
      <trkpt lat="59.398594775633" lon="17.982789188547">
        <ele>85</ele>
        <time>2019-08-19T17:02:55Z</time>
      </trkpt>
      <trkpt lat="59.399082099299" lon="17.982152499423">
        <ele>84.2</ele>
        <time>2019-08-19T17:03:04Z</time>
      </trkpt>
      <trkpt lat="59.399464146301" lon="17.98137742513">
        <ele>85.8</ele>
        <time>2019-08-19T17:03:12Z</time>
      </trkpt>
      <trkpt lat="59.399646620264" lon="17.981008705349">
        <ele>86</ele>
        <time>2019-08-19T17:03:16Z</time>
      </trkpt>
      <trkpt lat="59.399773941325" lon="17.98057276273">
        <ele>87.6</ele>
        <time>2019-08-19T17:03:20Z</time>
      </trkpt>
      <trkpt lat="59.399905201879" lon="17.980310073984">
        <ele>88.6</ele>
        <time>2019-08-19T17:03:23Z</time>
      </trkpt>
      <trkpt lat="59.400305186147" lon="17.979504741032">
        <ele>88.6</ele>
        <time>2019-08-19T17:03:32Z</time>
      </trkpt>
      <trkpt lat="59.400560079726" lon="17.978987326345">
        <ele>89.8</ele>
        <time>2019-08-19T17:03:38Z</time>
      </trkpt>
      <trkpt lat="59.400929134783" lon="17.97816715743">
        <ele>89.6</ele>
        <time>2019-08-19T17:03:47Z</time>
      </trkpt>
      <trkpt lat="59.401312941984" lon="17.97733651114">
        <ele>89.8</ele>
        <time>2019-08-19T17:03:56Z</time>
      </trkpt>
      <trkpt lat="59.401896992776" lon="17.976070089869">
        <ele>90.4</ele>
        <time>2019-08-19T17:04:10Z</time>
      </trkpt>
      <trkpt lat="59.402291947904" lon="17.975274228464">
        <ele>89.8</ele>
        <time>2019-08-19T17:04:20Z</time>
      </trkpt>
      <trkpt lat="59.402662511703" lon="17.974466800037">
        <ele>90.6</ele>
        <time>2019-08-19T17:04:30Z</time>
      </trkpt>
      <trkpt lat="59.402701487538" lon="17.974385411788">
        <ele>90.8</ele>
        <time>2019-08-19T17:04:31Z</time>
      </trkpt>
      <trkpt lat="59.402856049774" lon="17.974057008946">
        <ele>92</ele>
        <time>2019-08-19T17:04:35Z</time>
      </trkpt>
      <trkpt lat="59.402888906822" lon="17.973987606814">
        <ele>92</ele>
        <time>2019-08-19T17:04:36Z</time>
      </trkpt>
      <trkpt lat="59.403004241766" lon="17.973939578527">
        <ele>91.6</ele>
        <time>2019-08-19T17:04:38Z</time>
      </trkpt>
      <trkpt lat="59.403134077397" lon="17.973997665094">
        <ele>90.6</ele>
        <time>2019-08-19T17:04:40Z</time>
      </trkpt>
      <trkpt lat="59.403388551881" lon="17.974260940573">
        <ele>89.6</ele>
        <time>2019-08-19T17:04:44Z</time>
      </trkpt>
      <trkpt lat="59.403955335959" lon="17.974583140809">
        <ele>91.4</ele>
        <time>2019-08-19T17:04:53Z</time>
      </trkpt>
      <trkpt lat="59.404316931125" lon="17.974854295274">
        <ele>90.8</ele>
        <time>2019-08-19T17:04:58Z</time>
      </trkpt>
      <trkpt lat="59.404456992674" lon="17.975020424532">
        <ele>90.4</ele>
        <time>2019-08-19T17:05:00Z</time>
      </trkpt>
      <trkpt lat="59.404690763865" lon="17.975458546445">
        <ele>90.2</ele>
        <time>2019-08-19T17:05:04Z</time>
      </trkpt>
      <trkpt lat="59.40503987" lon="17.976347027845">
        <ele>90</ele>
        <time>2019-08-19T17:05:12Z</time>
      </trkpt>
      <trkpt lat="59.405138273506" lon="17.976509552886">
        <ele>90.2</ele>
        <time>2019-08-19T17:05:14Z</time>
      </trkpt>
      <trkpt lat="59.40524606474" lon="17.976614578093">
        <ele>90.2</ele>
        <time>2019-08-19T17:05:16Z</time>
      </trkpt>
      <trkpt lat="59.405418564242" lon="17.976727063191">
        <ele>90.6</ele>
        <time>2019-08-19T17:05:19Z</time>
      </trkpt>
      <trkpt lat="59.405552590823" lon="17.976897383399">
        <ele>90.8</ele>
        <time>2019-08-19T17:05:22Z</time>
      </trkpt>
      <trkpt lat="59.405667925767" lon="17.976896293752">
        <ele>90.8</ele>
        <time>2019-08-19T17:05:24Z</time>
      </trkpt>
      <trkpt lat="59.405799773054" lon="17.976795208038">
        <ele>90.2</ele>
        <time>2019-08-19T17:05:26Z</time>
      </trkpt>
      <trkpt lat="59.406185340454" lon="17.976044273617">
        <ele>91.2</ele>
        <time>2019-08-19T17:05:34Z</time>
      </trkpt>
      <trkpt lat="59.406227752868" lon="17.975958359142">
        <ele>91.6</ele>
        <time>2019-08-19T17:05:35Z</time>
      </trkpt>
      <trkpt lat="59.406359516336" lon="17.975737328439">
        <ele>93</ele>
        <time>2019-08-19T17:05:38Z</time>
      </trkpt>
      <trkpt lat="59.406405532967" lon="17.975672536352">
        <ele>93.4</ele>
        <time>2019-08-19T17:05:39Z</time>
      </trkpt>
      <trkpt lat="59.40649496784" lon="17.975565583308">
        <ele>94.2</ele>
        <time>2019-08-19T17:05:41Z</time>
      </trkpt>
      <trkpt lat="59.406743826451" lon="17.975182530478">
        <ele>95.2</ele>
        <time>2019-08-19T17:05:47Z</time>
      </trkpt>
      <trkpt lat="59.40679084891" lon="17.975128048128">
        <ele>95.6</ele>
        <time>2019-08-19T17:05:48Z</time>
      </trkpt>
      <trkpt lat="59.406874751729" lon="17.975068620457">
        <ele>96.4</ele>
        <time>2019-08-19T17:05:50Z</time>
      </trkpt>
      <trkpt lat="59.407042222091" lon="17.975136765304">
        <ele>97.4</ele>
        <time>2019-08-19T17:05:53Z</time>
      </trkpt>
      <trkpt lat="59.407096452984" lon="17.975140285702">
        <ele>97.6</ele>
        <time>2019-08-19T17:05:54Z</time>
      </trkpt>
      <trkpt lat="59.407315639669" lon="17.975075745072">
        <ele>98.2</ele>
        <time>2019-08-19T17:05:58Z</time>
      </trkpt>
      <trkpt lat="59.407427202758" lon="17.975012880822">
        <ele>98.6</ele>
        <time>2019-08-19T17:06:00Z</time>
      </trkpt>
      <trkpt lat="59.40754270534" lon="17.974931660211">
        <ele>98.8</ele>
        <time>2019-08-19T17:06:02Z</time>
      </trkpt>
      <trkpt lat="59.407773878142" lon="17.97480433915">
        <ele>99.8</ele>
        <time>2019-08-19T17:06:06Z</time>
      </trkpt>
      <trkpt lat="59.407898014081" lon="17.974733512095">
        <ele>101</ele>
        <time>2019-08-19T17:06:08Z</time>
      </trkpt>
      <trkpt lat="59.408080236587" lon="17.974636617331">
        <ele>102</ele>
        <time>2019-08-19T17:06:11Z</time>
      </trkpt>
      <trkpt lat="59.408136311498" lon="17.974589846329">
        <ele>101.8</ele>
        <time>2019-08-19T17:06:12Z</time>
      </trkpt>
      <trkpt lat="59.408336052175" lon="17.974319362416">
        <ele>101</ele>
        <time>2019-08-19T17:06:16Z</time>
      </trkpt>
      <trkpt lat="59.408481897235" lon="17.97404074806">
        <ele>99.8</ele>
        <time>2019-08-19T17:06:20Z</time>
      </trkpt>
      <trkpt lat="59.408564291312" lon="17.973883755073">
        <ele>100.2</ele>
        <time>2019-08-19T17:06:44Z</time>
      </trkpt>
      <trkpt lat="59.408575606877" lon="17.973943182744">
        <ele>100.2</ele>
        <time>2019-08-19T17:06:46Z</time>
      </trkpt>
      <trkpt lat="59.408955390766" lon="17.974689758577">
        <ele>99.8</ele>
        <time>2019-08-19T17:07:02Z</time>
      </trkpt>
      <trkpt lat="59.409090926089" lon="17.974596970944">
        <ele>99.4</ele>
        <time>2019-08-19T17:07:05Z</time>
      </trkpt>
      <trkpt lat="59.409510356365" lon="17.973885599091">
        <ele>99</ele>
        <time>2019-08-19T17:07:14Z</time>
      </trkpt>
      <trkpt lat="59.409728788679" lon="17.973697509255">
        <ele>98.6</ele>
        <time>2019-08-19T17:07:17Z</time>
      </trkpt>
      <trkpt lat="59.410178142338" lon="17.973558537353">
        <ele>97.4</ele>
        <time>2019-08-19T17:07:22Z</time>
      </trkpt>
      <trkpt lat="59.410745596968" lon="17.973411602646">
        <ele>96.4</ele>
        <time>2019-08-19T17:07:28Z</time>
      </trkpt>
      <trkpt lat="59.411262089646" lon="17.973365586015">
        <ele>95.4</ele>
        <time>2019-08-19T17:07:35Z</time>
      </trkpt>
      <trkpt lat="59.411511199714" lon="17.973342619609">
        <ele>94.2</ele>
        <time>2019-08-19T17:07:39Z</time>
      </trkpt>
      <trkpt lat="59.412064405114" lon="17.973234912194">
        <ele>93.8</ele>
        <time>2019-08-19T17:07:49Z</time>
      </trkpt>
      <trkpt lat="59.412549046572" lon="17.973136676326">
        <ele>93.2</ele>
        <time>2019-08-19T17:07:56Z</time>
      </trkpt>
      <trkpt lat="59.413165619136" lon="17.973053863154">
        <ele>93.8</ele>
        <time>2019-08-19T17:08:04Z</time>
      </trkpt>
      <trkpt lat="59.413320768105" lon="17.973031651119">
        <ele>94.4</ele>
        <time>2019-08-19T17:08:06Z</time>
      </trkpt>
      <trkpt lat="59.413627797102" lon="17.972960740245">
        <ele>95.4</ele>
        <time>2019-08-19T17:08:10Z</time>
      </trkpt>
      <trkpt lat="59.413941699257" lon="17.97288320767">
        <ele>96.4</ele>
        <time>2019-08-19T17:08:14Z</time>
      </trkpt>
      <trkpt lat="59.414560534934" lon="17.972838532143">
        <ele>96.6</ele>
        <time>2019-08-19T17:08:22Z</time>
      </trkpt>
      <trkpt lat="59.415173084186" lon="17.972794862444">
        <ele>96</ele>
        <time>2019-08-19T17:08:29Z</time>
      </trkpt>
      <trkpt lat="59.415741377006" lon="17.972714144747">
        <ele>96.2</ele>
        <time>2019-08-19T17:08:36Z</time>
      </trkpt>
      <trkpt lat="59.416138092333" lon="17.972689334323">
        <ele>97.4</ele>
        <time>2019-08-19T17:08:41Z</time>
      </trkpt>
      <trkpt lat="59.416717952175" lon="17.972486408524">
        <ele>97.8</ele>
        <time>2019-08-19T17:08:48Z</time>
      </trkpt>
      <trkpt lat="59.417275599982" lon="17.972439218427">
        <ele>96.4</ele>
        <time>2019-08-19T17:08:54Z</time>
      </trkpt>
      <trkpt lat="59.417548598465" lon="17.972421700256">
        <ele>95.2</ele>
        <time>2019-08-19T17:08:57Z</time>
      </trkpt>
      <trkpt lat="59.417833499246" lon="17.972408875949">
        <ele>94.2</ele>
        <time>2019-08-19T17:09:00Z</time>
      </trkpt>
      <trkpt lat="59.41825225897" lon="17.972337126885">
        <ele>93</ele>
        <time>2019-08-19T17:09:04Z</time>
      </trkpt>
      <trkpt lat="59.418470942741" lon="17.972288511865">
        <ele>91.2</ele>
        <time>2019-08-19T17:09:06Z</time>
      </trkpt>
      <trkpt lat="59.418686357571" lon="17.972235035343">
        <ele>90</ele>
        <time>2019-08-19T17:09:08Z</time>
      </trkpt>
      <trkpt lat="59.41907703793" lon="17.972150210515">
        <ele>88.8</ele>
        <time>2019-08-19T17:09:12Z</time>
      </trkpt>
      <trkpt lat="59.41925808697" lon="17.972118024019">
        <ele>87.8</ele>
        <time>2019-08-19T17:09:14Z</time>
      </trkpt>
      <trkpt lat="59.419337966477" lon="17.972139900778">
        <ele>87.4</ele>
        <time>2019-08-19T17:09:15Z</time>
      </trkpt>
      <trkpt lat="59.419465287538" lon="17.972209135272">
        <ele>86.6</ele>
        <time>2019-08-19T17:09:17Z</time>
      </trkpt>
      <trkpt lat="59.419537958611" lon="17.972282393078">
        <ele>86</ele>
        <time>2019-08-19T17:09:19Z</time>
      </trkpt>
      <trkpt lat="59.419628315493" lon="17.972250290401">
        <ele>85.4</ele>
        <time>2019-08-19T17:09:21Z</time>
      </trkpt>
      <trkpt lat="59.419962837122" lon="17.971325599193">
        <ele>84.8</ele>
        <time>2019-08-19T17:09:30Z</time>
      </trkpt>
      <trkpt lat="59.420286210824" lon="17.970334020423">
        <ele>86.2</ele>
        <time>2019-08-19T17:09:39Z</time>
      </trkpt>
      <trkpt lat="59.420463320371" lon="17.969946357548">
        <ele>86.2</ele>
        <time>2019-08-19T17:09:43Z</time>
      </trkpt>
      <trkpt lat="59.420569267587" lon="17.969644022415">
        <ele>86.4</ele>
        <time>2019-08-19T17:09:46Z</time>
      </trkpt>
      <trkpt lat="59.420644956144" lon="17.969300113058">
        <ele>87.4</ele>
        <time>2019-08-19T17:09:49Z</time>
      </trkpt>
      <trkpt lat="59.420689128757" lon="17.96910380896">
        <ele>88.2</ele>
        <time>2019-08-19T17:09:51Z</time>
      </trkpt>
      <trkpt lat="59.42071737576" lon="17.969019906141">
        <ele>88.6</ele>
        <time>2019-08-19T17:09:52Z</time>
      </trkpt>
      <trkpt lat="59.420891216366" lon="17.968556973804">
        <ele>89.8</ele>
        <time>2019-08-19T17:09:57Z</time>
      </trkpt>
      <trkpt lat="59.421309305538" lon="17.967843757933">
        <ele>89.8</ele>
        <time>2019-08-19T17:10:05Z</time>
      </trkpt>
      <trkpt lat="59.421610299567" lon="17.967400271604">
        <ele>90.8</ele>
        <time>2019-08-19T17:10:10Z</time>
      </trkpt>
      <trkpt lat="59.421807525674" lon="17.967145042749">
        <ele>90.8</ele>
        <time>2019-08-19T17:10:14Z</time>
      </trkpt>
      <trkpt lat="59.421837532876" lon="17.967021409724">
        <ele>89.6</ele>
        <time>2019-08-19T17:10:16Z</time>
      </trkpt>
      <trkpt lat="59.421781625603" lon="17.966868607687">
        <ele>88.4</ele>
        <time>2019-08-19T17:10:19Z</time>
      </trkpt>
      <trkpt lat="59.421758240102" lon="17.966831559689">
        <ele>88.4</ele>
        <time>2019-08-19T17:10:21Z</time>
      </trkpt>
    </trkseg>
  </trk>
</gpx>